Time;durP1;ratioP1;P1;durP2;ratioP2;P2;SDS_P1;SDS_P2;PMS_P1;PMS_P2;Temp;Humidity;BMP_temperature;BMP_pressure;BME280_temperature;BME280_humidity;BME280_pressure;Samples;Min_cycle;Max_cycle;Signal;HPM_P1;HPM_P2
2023/05/06 00:00:55;;;;;;;13.20;10.13;;;;;;;;;;6158183;23;20016;-81
2023/05/06 00:03:21;;;;;;;13.50;10.05;;;;;;;;;;6157487;23;20017;-81
2023/05/06 00:05:48;;;;;;;17.13;11.55;;;;;;;;;;6184914;23;20024;-81
2023/05/06 00:08:14;;;;;;;14.50;11.32;;;;;;;;;;6156865;23;20016;-82
2023/05/06 00:10:40;;;;;;;12.98;10.00;;;;;;;;;;6157477;23;20017;-82
2023/05/06 00:13:07;;;;;;;13.20;9.98;;;;;;;;;;6158264;23;20298;-81
2023/05/06 00:15:33;;;;;;;13.30;10.13;;;;;;;;;;6185028;23;20044;-81
2023/05/06 00:17:59;;;;;;;15.20;9.98;;;;;;;;;;6157765;23;20056;-82
2023/05/06 00:20:26;;;;;;;19.02;11.30;;;;;;;;;;6132617;23;20333;-82
2023/05/06 00:22:52;;;;;;;13.95;9.52;;;;;;;;;;6183521;23;20013;-81
2023/05/06 00:25:18;;;;;;;12.25;9.88;;;;;;;;;;6157750;23;20013;-82
2023/05/06 00:27:44;;;;;;;12.18;9.48;;;;;;;;;;6184495;23;20017;-82
2023/05/06 00:30:11;;;;;;;14.60;10.30;;;;;;;;;;6158006;23;20020;-81
2023/05/06 00:32:37;;;;;;;22.27;13.23;;;;;;;;;;6133698;23;20063;-82
2023/05/06 00:35:03;;;;;;;15.13;9.63;;;;;;;;;;6158175;23;20023;-82
2023/05/06 00:37:29;;;;;;;15.70;10.18;;;;;;;;;;6157612;23;20013;-82
2023/05/06 00:39:55;;;;;;;11.90;8.85;;;;;;;;;;6184536;23;20017;-82
2023/05/06 00:42:22;;;;;;;11.63;8.93;;;;;;;;;;6132911;23;20017;-82
2023/05/06 00:44:48;;;;;;;12.93;9.43;;;;;;;;;;6157643;23;20478;-82
2023/05/06 00:47:14;;;;;;;17.13;10.32;;;;;;;;;;6184504;23;20017;-82
2023/05/06 00:49:41;;;;;;;15.82;11.23;;;;;;;;;;6184868;23;20013;-82
2023/05/06 00:52:07;;;;;;;11.95;10.60;;;;;;;;;;6133365;23;20020;-82
2023/05/06 00:54:33;;;;;;;13.80;9.80;;;;;;;;;;6185227;23;20017;-82
2023/05/06 00:57:01;;;;;;;15.27;11.40;;;;;;;;;;6157722;23;20016;-81
2023/05/06 00:59:27;;;;;;;13.05;10.73;;;;;;;;;;6133645;23;20013;-81
2023/05/06 01:01:53;;;;;;;15.20;11.77;;;;;;;;;;6157734;23;20064;-82
2023/05/06 01:04:20;;;;;;;12.80;11.00;;;;;;;;;;6133279;23;20088;-82
2023/05/06 01:07:00;;;;;;;17.13;12.32;;;;;;;;;;6132926;23;20032;-81
2023/05/06 01:09:52;;;;;;;13.65;10.43;;;;;;;;;;6157625;23;20084;-81
2023/05/06 01:12:22;;;;;;;17.80;12.80;;;;;;;;;;6099853;23;20372;-82
2023/05/06 01:15:06;;;;;;;17.02;13.30;;;;;;;;;;6132534;23;20021;-82
2023/05/06 01:17:37;;;;;;;17.02;12.45;;;;;;;;;;6133042;23;20518;-81
2023/05/06 01:20:05;;;;;;;19.85;14.05;;;;;;;;;;6157624;23;20013;-82
2023/05/06 01:22:32;;;;;;;20.92;13.70;;;;;;;;;;6183756;23;20020;-82
2023/05/06 01:24:58;;;;;;;21.70;14.25;;;;;;;;;;6157781;23;20068;-81
2023/05/06 01:27:24;;;;;;;16.70;12.95;;;;;;;;;;6184158;23;20040;-81
2023/05/06 01:29:50;;;;;;;22.55;12.77;;;;;;;;;;6158098;23;20009;-82
2023/05/06 01:32:24;;;;;;;20.67;12.23;;;;;;;;;;6158248;23;20017;-82
2023/05/06 01:34:56;;;;;;;16.50;12.88;;;;;;;;;;6157821;23;20013;-81
2023/05/06 01:37:31;;;;;;;22.77;14.57;;;;;;;;;;6156813;23;20024;-82
2023/05/06 01:40:00;;;;;;;15.32;11.45;;;;;;;;;;6132886;23;20344;-81
2023/05/06 01:42:26;;;;;;;15.55;12.57;;;;;;;;;;6157277;23;20136;-82
2023/05/06 01:44:54;;;;;;;16.90;14.45;;;;;;;;;;6184865;23;20013;-82
2023/05/06 01:47:20;;;;;;;14.10;12.50;;;;;;;;;;6132899;23;20012;-81
2023/05/06 01:49:47;;;;;;;14.70;11.52;;;;;;;;;;6156927;23;20016;-82
2023/05/06 01:52:15;;;;;;;17.33;12.23;;;;;;;;;;6157688;23;20017;-82
2023/05/06 01:54:41;;;;;;;17.02;12.30;;;;;;;;;;6183796;23;20021;-81
2023/05/06 01:57:07;;;;;;;17.13;12.98;;;;;;;;;;6132870;23;20017;-81
2023/05/06 01:59:33;;;;;;;17.52;11.82;;;;;;;;;;6183790;23;20428;-81
2023/05/06 02:01:59;;;;;;;18.10;13.70;;;;;;;;;;6184140;23;20083;-81
2023/05/06 02:04:25;;;;;;;16.92;12.77;;;;;;;;;;6132025;23;20336;-81
2023/05/06 02:06:51;;;;;;;14.32;12.55;;;;;;;;;;6132693;23;20013;-82
2023/05/06 02:09:17;;;;;;;16.25;13.38;;;;;;;;;;6158237;23;20494;-82
2023/05/06 02:11:43;;;;;;;19.35;14.98;;;;;;;;;;6157756;23;20013;-81
2023/05/06 02:14:10;;;;;;;12.55;11.15;;;;;;;;;;6183335;23;20460;-81
2023/05/06 02:16:36;;;;;;;15.18;13.10;;;;;;;;;;6156985;23;20071;-82
2023/05/06 02:19:02;;;;;;;14.20;11.40;;;;;;;;;;6132078;23;20017;-82
2023/05/06 02:21:28;;;;;;;12.77;11.48;;;;;;;;;;6132555;23;20092;-82
2023/05/06 02:23:54;;;;;;;13.50;11.40;;;;;;;;;;6132585;23;20016;-81
2023/05/06 02:26:20;;;;;;;13.05;10.80;;;;;;;;;;6157585;23;20009;-81
2023/05/06 02:28:46;;;;;;;14.98;12.57;;;;;;;;;;6157089;23;20463;-81
2023/05/06 02:31:15;;;;;;;18.77;13.38;;;;;;;;;;6133099;23;20340;-81
2023/05/06 02:33:41;;;;;;;20.02;15.20;;;;;;;;;;6184850;23;20017;-81
2023/05/06 02:36:07;;;;;;;12.48;11.18;;;;;;;;;;6158524;23;20009;-80
2023/05/06 02:38:33;;;;;;;20.10;15.32;;;;;;;;;;6185225;23;20020;-80
2023/05/06 02:40:59;;;;;;;18.98;15.23;;;;;;;;;;6134080;23;20009;-82
2023/05/06 02:43:25;;;;;;;15.65;13.25;;;;;;;;;;6185251;23;20020;-81
2023/05/06 02:45:51;;;;;;;15.68;12.55;;;;;;;;;;6185594;23;20009;-81
2023/05/06 02:48:17;;;;;;;19.23;14.48;;;;;;;;;;6184550;23;20013;-81
2023/05/06 02:50:43;;;;;;;24.25;17.55;;;;;;;;;;6185009;23;20443;-82
2023/05/06 02:53:11;;;;;;;24.05;16.67;;;;;;;;;;6158148;23;20021;-81
2023/05/06 02:55:37;;;;;;;23.27;18.02;;;;;;;;;;6133929;23;20320;-81
2023/05/06 02:58:03;;;;;;;32.30;20.15;;;;;;;;;;6158591;23;20017;-81
2023/05/06 03:00:29;;;;;;;17.35;13.27;;;;;;;;;;6158470;23;20024;-81
2023/05/06 03:02:56;;;;;;;23.38;14.35;;;;;;;;;;6157702;23;20013;-81
2023/05/06 03:05:22;;;;;;;15.63;13.25;;;;;;;;;;6133670;23;20056;-82
2023/05/06 03:07:48;;;;;;;15.65;12.77;;;;;;;;;;6185031;23;20009;-81
2023/05/06 03:10:14;;;;;;;24.10;15.32;;;;;;;;;;6157926;23;20088;-80
2023/05/06 03:12:40;;;;;;;21.55;15.23;;;;;;;;;;6158503;23;20024;-81
2023/05/06 03:15:06;;;;;;;20.83;14.40;;;;;;;;;;6184094;23;20064;-81
2023/05/06 03:17:32;;;;;;;24.75;16.42;;;;;;;;;;6184473;23;20032;-82
2023/05/06 03:19:58;;;;;;;18.45;14.60;;;;;;;;;;6185042;23;20009;-81
2023/05/06 03:22:24;;;;;;;16.30;11.98;;;;;;;;;;6157915;23;20020;-80
2023/05/06 03:24:50;;;;;;;19.02;14.52;;;;;;;;;;6133815;23;20016;-81
2023/05/06 03:27:16;;;;;;;17.92;14.07;;;;;;;;;;6185485;23;20013;-82
2023/05/06 03:29:42;;;;;;;20.98;14.63;;;;;;;;;;6185718;23;20009;-81
2023/05/06 03:32:08;;;;;;;17.90;15.07;;;;;;;;;;6158018;23;20047;-81
2023/05/06 03:34:35;;;;;;;16.02;14.32;;;;;;;;;;6133817;23;20016;-81
2023/05/06 03:37:01;;;;;;;21.65;16.85;;;;;;;;;;6158786;23;20092;-81
2023/05/06 03:39:27;;;;;;;21.23;14.57;;;;;;;;;;6158454;23;20519;-81
2023/05/06 03:41:53;;;;;;;16.40;13.15;;;;;;;;;;6184328;23;20048;-80
2023/05/06 03:44:19;;;;;;;16.67;12.20;;;;;;;;;;6133031;23;20017;-81
2023/05/06 03:46:45;;;;;;;16.80;14.23;;;;;;;;;;6156972;23;20009;-81
2023/05/06 03:49:11;;;;;;;21.10;15.75;;;;;;;;;;6184848;23;20012;-81
2023/05/06 03:51:37;;;;;;;18.42;14.43;;;;;;;;;;6185064;23;20023;-81
2023/05/06 03:54:03;;;;;;;17.88;14.82;;;;;;;;;;6133330;23;20067;-82
2023/05/06 03:56:29;;;;;;;18.30;14.57;;;;;;;;;;6133152;23;20128;-81
2023/05/06 03:58:55;;;;;;;20.88;15.98;;;;;;;;;;6158424;23;20017;-80
2023/05/06 04:01:21;;;;;;;24.08;17.95;;;;;;;;;;6157229;23;20017;-81
2023/05/06 04:03:47;;;;;;;20.08;16.08;;;;;;;;;;6157618;23;20025;-82
2023/05/06 04:06:13;;;;;;;32.53;18.90;;;;;;;;;;6158127;23;20384;-81
2023/05/06 04:08:39;;;;;;;20.38;16.00;;;;;;;;;;6157901;23;20120;-81
2023/05/06 04:11:06;;;;;;;42.40;19.92;;;;;;;;;;6157400;23;20024;-81
2023/05/06 04:13:33;;;;;;;29.08;18.42;;;;;;;;;;6157616;23;20387;-81
2023/05/06 04:15:59;;;;;;;22.38;17.17;;;;;;;;;;6157594;23;20017;-81
2023/05/06 04:18:25;;;;;;;16.95;14.90;;;;;;;;;;6157795;23;20333;-81
2023/05/06 04:20:51;;;;;;;19.30;16.70;;;;;;;;;;6184470;23;20044;-82
2023/05/06 04:23:17;;;;;;;32.33;19.77;;;;;;;;;;6158005;23;20020;-81
2023/05/06 04:25:47;;;;;;;22.48;17.02;;;;;;;;;;6159185;23;20016;-81
2023/05/06 04:28:13;;;;;;;21.77;16.95;;;;;;;;;;6132891;23;20032;-82
2023/05/06 04:30:40;;;;;;;18.40;14.35;;;;;;;;;;6157178;23;20412;-81
2023/05/06 04:33:06;;;;;;;25.23;17.08;;;;;;;;;;6157719;23;20025;-81
2023/05/06 04:35:32;;;;;;;19.63;15.57;;;;;;;;;;6158108;23;20017;-82
2023/05/06 04:37:58;;;;;;;37.63;16.60;;;;;;;;;;6184357;23;20013;-82
2023/05/06 04:40:25;;;;;;;23.98;14.15;;;;;;;;;;6184664;23;20028;-81
2023/05/06 04:42:51;;;;;;;26.08;16.08;;;;;;;;;;6158540;23;20088;-81
2023/05/06 04:45:17;;;;;;;27.60;16.20;;;;;;;;;;6183615;23;20017;-82
2023/05/06 04:47:43;;;;;;;19.08;12.00;;;;;;;;;;6184366;23;20048;-81
2023/05/06 04:50:09;;;;;;;10.95;9.45;;;;;;;;;;6158007;23;20013;-82
2023/05/06 04:52:36;;;;;;;16.63;11.40;;;;;;;;;;6133179;23;20328;-82
2023/05/06 04:55:05;;;;;;;11.80;9.95;;;;;;;;;;6132969;23;20017;-81
2023/05/06 04:57:31;;;;;;;10.05;9.02;;;;;;;;;;6157120;23;20016;-81
2023/05/06 04:59:57;;;;;;;9.38;8.32;;;;;;;;;;6133128;23;20020;-81
2023/05/06 05:02:23;;;;;;;10.02;8.57;;;;;;;;;;6132356;23;20107;-81
2023/05/06 05:04:49;;;;;;;8.38;7.57;;;;;;;;;;6132630;23;20017;-81
2023/05/06 05:07:15;;;;;;;8.95;8.05;;;;;;;;;;6157838;23;20013;-82
2023/05/06 05:09:42;;;;;;;9.00;7.78;;;;;;;;;;6157348;23;20357;-82
2023/05/06 05:12:08;;;;;;;9.43;8.40;;;;;;;;;;6184282;23;20013;-81
2023/05/06 05:14:34;;;;;;;9.80;8.73;;;;;;;;;;6156628;23;20056;-82
2023/05/06 05:17:00;;;;;;;12.82;9.73;;;;;;;;;;6157003;23;20025;-82
2023/05/06 05:19:27;;;;;;;10.88;9.18;;;;;;;;;;6157696;23;20455;-82
2023/05/06 05:21:53;;;;;;;13.00;11.23;;;;;;;;;;6157939;23;20044;-82
2023/05/06 05:24:19;;;;;;;13.82;10.70;;;;;;;;;;6133097;23;20016;-82
2023/05/06 05:26:45;;;;;;;12.07;10.50;;;;;;;;;;6158004;23;20120;-82
2023/05/06 05:29:11;;;;;;;20.67;15.80;;;;;;;;;;6132399;23;20013;-82
2023/05/06 05:31:37;;;;;;;20.23;16.70;;;;;;;;;;6157210;23;20092;-82
2023/05/06 05:34:03;;;;;;;21.52;14.95;;;;;;;;;;6157208;23;20013;-80
2023/05/06 05:36:30;;;;;;;24.25;16.38;;;;;;;;;;6132958;23;20419;-82
2023/05/06 05:38:56;;;;;;;17.88;15.07;;;;;;;;;;6183539;23;20084;-82
2023/05/06 05:41:22;;;;;;;21.23;16.48;;;;;;;;;;6132704;23;20013;-81
2023/05/06 05:43:48;;;;;;;22.80;17.38;;;;;;;;;;6132554;23;20068;-80
2023/05/06 05:46:15;;;;;;;25.45;19.02;;;;;;;;;;6157144;23;20048;-82
2023/05/06 05:48:42;;;;;;;21.95;17.30;;;;;;;;;;6132511;23;20020;-81
2023/05/06 05:51:08;;;;;;;20.25;16.38;;;;;;;;;;6131833;23;20372;-81
2023/05/06 05:53:34;;;;;;;23.15;17.52;;;;;;;;;;6156330;23;20043;-81
2023/05/06 05:56:00;;;;;;;24.42;18.58;;;;;;;;;;6156788;23;20326;-82
2023/05/06 05:58:26;;;;;;;22.08;15.90;;;;;;;;;;6131791;23;20013;-81
2023/05/06 06:00:52;;;;;;;26.33;18.77;;;;;;;;;;6156564;23;20032;-81
2023/05/06 06:03:18;;;;;;;19.73;16.60;;;;;;;;;;6132163;23;20037;-81
2023/05/06 06:05:44;;;;;;;23.67;18.40;;;;;;;;;;6133042;23;20017;-82
2023/05/06 06:08:10;;;;;;;30.15;20.83;;;;;;;;;;6134319;23;20013;-81
2023/05/06 06:10:36;;;;;;;31.13;20.98;;;;;;;;;;6133575;23;20016;-81
2023/05/06 06:13:02;;;;;;;25.90;20.13;;;;;;;;;;6133531;23;20028;-81
2023/05/06 06:15:28;;;;;;;28.73;21.13;;;;;;;;;;6158126;23;20021;-82
2023/05/06 06:17:54;;;;;;;25.10;18.85;;;;;;;;;;6184734;23;20103;-81
2023/05/06 06:20:20;;;;;;;25.20;20.55;;;;;;;;;;6158158;23;20095;-80
2023/05/06 06:22:46;;;;;;;27.05;20.00;;;;;;;;;;6184373;23;20023;-83
2023/05/06 06:25:12;;;;;;;27.17;21.38;;;;;;;;;;6157800;23;20020;-82
2023/05/06 06:27:38;;;;;;;29.85;21.88;;;;;;;;;;6159053;23;20009;-80
2023/05/06 06:30:05;;;;;;;25.05;20.15;;;;;;;;;;6134450;23;20021;-82
2023/05/06 06:32:31;;;;;;;26.65;20.52;;;;;;;;;;6185269;23;20013;-82
2023/05/06 06:34:57;;;;;;;31.25;22.23;;;;;;;;;;6158508;23;20320;-83
2023/05/06 06:37:25;;;;;;;32.30;25.20;;;;;;;;;;6158332;23;20035;-82
2023/05/06 06:39:51;;;;;;;34.50;25.08;;;;;;;;;;6158242;23;20013;-81
2023/05/06 06:42:17;;;;;;;27.05;21.45;;;;;;;;;;6185040;23;20428;-82
2023/05/06 06:44:43;;;;;;;32.25;25.08;;;;;;;;;;6158731;23;20013;-81
2023/05/06 06:47:09;;;;;;;28.83;23.27;;;;;;;;;;6132782;23;20059;-81
2023/05/06 06:49:35;;;;;;;31.63;24.17;;;;;;;;;;6183971;23;20009;-81
2023/05/06 06:52:01;;;;;;;29.88;23.35;;;;;;;;;;6157493;23;20013;-81
2023/05/06 06:54:27;;;;;;;27.73;23.27;;;;;;;;;;6132329;23;20070;-79
2023/05/06 06:56:57;;;;;;;33.72;23.67;;;;;;;;;;6184516;23;20430;-80
2023/05/06 06:59:23;;;;;;;27.27;23.30;;;;;;;;;;6135752;23;20099;-84
2023/05/06 07:01:50;;;;;;;27.63;21.30;;;;;;;;;;6160177;23;20125;-86
2023/05/06 07:04:16;;;;;;;33.40;22.75;;;;;;;;;;6160061;23;20017;-83
2023/05/06 07:06:42;;;;;;;31.45;24.83;;;;;;;;;;6134712;23;20021;-83
2023/05/06 07:09:08;;;;;;;32.25;24.88;;;;;;;;;;6134214;23;20417;-83
2023/05/06 07:11:34;;;;;;;27.60;21.95;;;;;;;;;;6159471;23;20017;-83
2023/05/06 07:14:00;;;;;;;29.17;20.73;;;;;;;;;;6159117;23;20325;-83
2023/05/06 07:16:26;;;;;;;25.35;21.75;;;;;;;;;;6134435;23;20039;-82
2023/05/06 07:18:52;;;;;;;25.10;20.77;;;;;;;;;;6134456;23;20382;-83
2023/05/06 07:21:19;;;;;;;29.55;21.95;;;;;;;;;;6158746;23;20028;-83
2023/05/06 07:23:45;;;;;;;29.50;22.10;;;;;;;;;;6134377;23;20017;-82
2023/05/06 07:26:11;;;;;;;27.05;21.83;;;;;;;;;;6160248;23;20021;-82
2023/05/06 07:28:36;;;;;;;29.25;22.77;;;;;;;;;;6158286;23;20388;-83
2023/05/06 07:31:03;;;;;;;30.17;23.65;;;;;;;;;;6185336;23;20088;-83
2023/05/06 07:33:29;;;;;;;34.38;29.75;;;;;;;;;;6184887;23;20441;-83
2023/05/06 07:35:55;;;;;;;32.65;28.65;;;;;;;;;;6134394;23;20017;-83
2023/05/06 07:38:24;;;;;;;32.90;28.42;;;;;;;;;;6133588;23;20013;-83
2023/05/06 07:40:53;;;;;;;33.38;28.42;;;;;;;;;;6134389;23;20061;-83
2023/05/06 07:43:19;;;;;;;27.25;23.52;;;;;;;;;;6158671;23;20103;-82
2023/05/06 07:45:45;;;;;;;27.55;22.90;;;;;;;;;;6133689;23;20017;-83
2023/05/06 07:48:11;;;;;;;28.23;24.85;;;;;;;;;;6185301;23;20091;-83
2023/05/06 07:50:37;;;;;;;25.90;22.90;;;;;;;;;;6134132;23;20024;-82
2023/05/06 07:53:03;;;;;;;24.90;20.88;;;;;;;;;;6158204;23;20067;-83
2023/05/06 07:55:29;;;;;;;25.27;19.73;;;;;;;;;;6184843;23;20048;-83
2023/05/06 07:57:55;;;;;;;21.85;18.48;;;;;;;;;;6133954;23;20079;-82
2023/05/06 08:00:21;;;;;;;23.35;19.30;;;;;;;;;;6157783;23;20067;-83
2023/05/06 08:02:47;;;;;;;20.67;18.25;;;;;;;;;;6157728;23;20356;-83
2023/05/06 08:05:13;;;;;;;21.15;18.83;;;;;;;;;;6159037;23;20048;-83
2023/05/06 08:07:40;;;;;;;18.85;16.23;;;;;;;;;;6133786;23;20092;-82
2023/05/06 08:10:07;;;;;;;20.35;16.02;;;;;;;;;;6158248;23;20508;-83
2023/05/06 08:12:34;;;;;;;18.20;16.30;;;;;;;;;;6185252;23;20021;-83
2023/05/06 08:15:00;;;;;;;18.00;16.10;;;;;;;;;;6158296;23;20035;-83
2023/05/06 08:17:26;;;;;;;19.45;17.45;;;;;;;;;;6133490;23;20087;-83
2023/05/06 08:19:52;;;;;;;16.80;15.02;;;;;;;;;;6133909;23;20013;-84
2023/05/06 08:22:18;;;;;;;13.23;11.93;;;;;;;;;;6133281;23;20013;-83
2023/05/06 08:24:44;;;;;;;15.50;12.07;;;;;;;;;;6132839;23;20024;-83
2023/05/06 08:27:10;;;;;;;12.27;10.98;;;;;;;;;;6158690;23;20020;-84
2023/05/06 08:29:36;;;;;;;10.02;8.90;;;;;;;;;;6185529;23;20013;-84
2023/05/06 08:32:02;;;;;;;13.93;10.20;;;;;;;;;;6185019;23;20506;-83
2023/05/06 08:34:28;;;;;;;12.38;10.77;;;;;;;;;;6158692;23;20072;-85
2023/05/06 08:36:55;;;;;;;12.30;10.98;;;;;;;;;;6185355;23;20025;-84
2023/05/06 08:39:21;;;;;;;13.35;10.77;;;;;;;;;;6159761;23;20013;-84
2023/05/06 08:41:48;;;;;;;11.75;10.43;;;;;;;;;;6159507;23;20035;-83
2023/05/06 08:44:15;;;;;;;12.30;10.95;;;;;;;;;;6134784;23;20025;-83
2023/05/06 08:46:41;;;;;;;11.85;10.30;;;;;;;;;;6159731;23;20082;-83
2023/05/06 08:49:07;;;;;;;13.77;10.10;;;;;;;;;;6159498;23;20083;-83
2023/05/06 08:51:34;;;;;;;12.10;10.50;;;;;;;;;;6133495;23;20031;-83
2023/05/06 08:54:03;;;;;;;10.88;9.60;;;;;;;;;;6158924;23;20052;-84
2023/05/06 08:56:30;;;;;;;12.48;10.75;;;;;;;;;;6134116;23;20009;-84
2023/05/06 08:58:57;;;;;;;12.02;10.05;;;;;;;;;;6133729;23;20009;-83
2023/05/06 09:01:25;;;;;;;11.65;10.45;;;;;;;;;;6133873;23;20036;-84
2023/05/06 09:03:51;;;;;;;12.35;10.55;;;;;;;;;;6133984;23;20017;-82
2023/05/06 09:06:17;;;;;;;14.05;10.85;;;;;;;;;;6158256;23;20062;-83
2023/05/06 09:08:43;;;;;;;11.45;10.25;;;;;;;;;;6134471;23;20020;-84
2023/05/06 09:11:22;;;;;;;11.90;9.80;;;;;;;;;;6158560;23;20421;-83
2023/05/06 09:13:48;;;;;;;11.77;10.55;;;;;;;;;;6185283;23;20099;-83
2023/05/06 09:16:28;;;;;;;12.75;9.68;;;;;;;;;;6185562;23;20028;-83
2023/05/06 09:18:54;;;;;;;11.90;9.27;;;;;;;;;;6158850;23;20021;-83
2023/05/06 09:21:20;;;;;;;12.85;10.02;;;;;;;;;;6132895;23;20172;-83
2023/05/06 09:23:46;;;;;;;10.63;9.50;;;;;;;;;;6184914;23;20013;-83
2023/05/06 09:26:12;;;;;;;13.25;10.13;;;;;;;;;;6158351;23;20016;-84
2023/05/06 09:28:39;;;;;;;10.80;9.45;;;;;;;;;;6159037;23;20044;-83
2023/05/06 09:31:06;;;;;;;12.50;9.85;;;;;;;;;;6134094;23;20135;-83
2023/05/06 09:33:35;;;;;;;7.00;5.00;;;;;;;;;;6133957;23;20050;-83
2023/05/06 09:36:01;;;;;;;9.25;7.20;;;;;;;;;;6158860;23;20013;-84
2023/05/06 09:38:27;;;;;;;11.35;7.85;;;;;;;;;;6158650;23;20070;-83
2023/05/06 09:40:53;;;;;;;9.48;7.88;;;;;;;;;;6158431;23;20108;-83
2023/05/06 09:43:20;;;;;;;10.13;8.15;;;;;;;;;;6186704;23;20023;-83
2023/05/06 09:45:46;;;;;;;12.48;7.10;;;;;;;;;;6160870;23;20016;-83
2023/05/06 09:48:12;;;;;;;8.27;5.35;;;;;;;;;;6159800;23;20060;-83
2023/05/06 09:50:38;;;;;;;9.25;5.43;;;;;;;;;;6159985;23;20020;-83
2023/05/06 09:53:05;;;;;;;7.18;5.43;;;;;;;;;;6135492;23;20321;-83
2023/05/06 09:55:31;;;;;;;9.80;5.65;;;;;;;;;;6187115;23;20040;-83
2023/05/06 09:57:59;;;;;;;6.70;4.80;;;;;;;;;;6186662;23;20035;-83
2023/05/06 10:00:27;;;;;;;7.47;5.65;;;;;;;;;;6160197;23;20045;-82
2023/05/06 10:02:54;;;;;;;8.52;6.05;;;;;;;;;;6159371;23;20423;-82
2023/05/06 10:05:20;;;;;;;8.68;5.97;;;;;;;;;;6186733;23;20013;-83
2023/05/06 10:07:48;;;;;;;11.43;6.70;;;;;;;;;;6187063;23;20047;-83
2023/05/06 10:10:15;;;;;;;9.32;6.70;;;;;;;;;;6186487;23;20091;-83
2023/05/06 10:12:41;;;;;;;7.55;6.55;;;;;;;;;;6135251;23;20028;-84
2023/05/06 10:15:07;;;;;;;8.50;6.95;;;;;;;;;;6159626;23;20029;-83
2023/05/06 10:17:34;;;;;;;8.30;7.32;;;;;;;;;;6159218;23;20033;-83
2023/05/06 10:20:00;;;;;;;10.10;8.73;;;;;;;;;;6186082;23;20013;-83
2023/05/06 10:22:26;;;;;;;10.40;8.10;;;;;;;;;;6135336;23;20340;-82
2023/05/06 10:24:58;;;;;;;13.75;8.75;;;;;;;;;;6160234;23;20052;-83
2023/05/06 10:27:25;;;;;;;10.75;8.88;;;;;;;;;;6186408;23;20055;-83
2023/05/06 10:29:53;;;;;;;12.13;8.80;;;;;;;;;;6135422;23;20009;-82
2023/05/06 10:32:21;;;;;;;13.10;9.30;;;;;;;;;;6159578;23;20013;-81
2023/05/06 10:34:52;;;;;;;10.52;9.25;;;;;;;;;;6158974;23;20100;-83
2023/05/06 10:37:19;;;;;;;10.57;8.90;;;;;;;;;;6134755;23;20119;-83
2023/05/06 10:39:46;;;;;;;12.25;8.65;;;;;;;;;;6159057;23;20016;-82
2023/05/06 10:42:12;;;;;;;9.95;8.43;;;;;;;;;;6134884;23;20021;-82
2023/05/06 10:44:58;;;;;;;13.10;10.25;;;;;;;;;;6134671;23;20019;-82
2023/05/06 10:47:24;;;;;;;11.70;9.88;;;;;;;;;;6133245;23;20444;-82
2023/05/06 10:50:10;;;;;;;11.75;9.00;;;;;;;;;;6133831;23;20027;-83
2023/05/06 10:52:46;;;;;;;10.93;9.23;;;;;;;;;;6184851;23;20017;-82
2023/05/06 10:55:26;;;;;;;12.93;10.95;;;;;;;;;;6134167;23;20113;-82
2023/05/06 10:57:56;;;;;;;12.85;10.40;;;;;;;;;;6134913;23;20019;-82
2023/05/06 11:00:22;;;;;;;14.35;11.63;;;;;;;;;;6134034;23;20013;-82
2023/05/06 11:02:55;;;;;;;12.60;11.13;;;;;;;;;;6157711;23;20071;-82
2023/05/06 11:05:22;;;;;;;14.65;12.07;;;;;;;;;;6133643;23;20021;-83
2023/05/06 11:07:51;;;;;;;15.38;11.98;;;;;;;;;;6159192;23;20332;-82
2023/05/06 11:10:31;;;;;;;14.00;12.55;;;;;;;;;;6159514;23;20115;-82
2023/05/06 11:12:57;;;;;;;18.45;13.00;;;;;;;;;;6133614;23;20452;-82
2023/05/06 11:15:37;;;;;;;15.95;12.77;;;;;;;;;;6184636;23;20084;-82
2023/05/06 11:18:21;;;;;;;15.30;13.27;;;;;;;;;;6185929;23;20013;-82
2023/05/06 11:20:49;;;;;;;16.20;13.13;;;;;;;;;;6133707;23;20017;-82
2023/05/06 11:23:15;;;;;;;16.50;13.52;;;;;;;;;;6185631;23;20013;-83
2023/05/06 11:25:42;;;;;;;17.15;13.75;;;;;;;;;;6134794;23;20064;-83
2023/05/06 11:28:11;;;;;;;15.50;13.68;;;;;;;;;;6185822;23;20009;-82
2023/05/06 11:30:42;;;;;;;15.50;13.50;;;;;;;;;;6159939;23;20017;-82
2023/05/06 11:33:08;;;;;;;15.13;13.48;;;;;;;;;;6158798;23;20024;-81
2023/05/06 11:35:37;;;;;;;16.35;14.00;;;;;;;;;;6157052;23;20021;-80
2023/05/06 11:38:03;;;;;;;16.55;13.90;;;;;;;;;;6158001;23;20337;-81
2023/05/06 11:40:33;;;;;;;16.80;13.68;;;;;;;;;;6159451;23;20024;-83
2023/05/06 11:43:12;;;;;;;16.00;13.10;;;;;;;;;;6160162;23;20340;-80
2023/05/06 11:45:45;;;;;;;16.13;12.05;;;;;;;;;;6132153;23;20396;-80
2023/05/06 11:48:14;;;;;;;16.80;14.23;;;;;;;;;;6157649;23;20159;-80
2023/05/06 11:50:50;;;;;;;19.92;13.80;;;;;;;;;;6160202;23;20140;-83
2023/05/06 11:53:17;;;;;;;15.65;12.50;;;;;;;;;;6133057;23;20059;-83
2023/05/06 11:55:44;;;;;;;16.98;12.57;;;;;;;;;;6182352;23;20071;-83
2023/05/06 11:58:19;;;;;;;20.63;13.73;;;;;;;;;;6155190;23;20412;-80
2023/05/06 12:00:50;;;;;;;15.68;12.27;;;;;;;;;;6131197;23;20048;-81
2023/05/06 12:03:17;;;;;;;16.15;12.13;;;;;;;;;;6131207;23;20009;-81
2023/05/06 12:05:43;;;;;;;17.98;13.68;;;;;;;;;;6156833;23;20048;-81
2023/05/06 12:08:10;;;;;;;14.70;12.25;;;;;;;;;;6131371;23;20025;-80
2023/05/06 12:10:36;;;;;;;16.88;12.70;;;;;;;;;;6131539;23;20335;-82
2023/05/06 12:13:03;;;;;;;18.20;12.52;;;;;;;;;;6156486;23;20016;-82
2023/05/06 12:15:29;;;;;;;14.55;12.55;;;;;;;;;;6131839;23;20316;-83
2023/05/06 12:17:55;;;;;;;16.60;12.90;;;;;;;;;;6156204;23;20013;-83
2023/05/06 12:20:22;;;;;;;16.92;12.77;;;;;;;;;;6156265;23;20384;-83
2023/05/06 12:23:07;;;;;;;16.80;13.45;;;;;;;;;;6156218;23;20019;-83
2023/05/06 12:25:33;;;;;;;14.57;12.45;;;;;;;;;;6156069;23;20056;-82
2023/05/06 12:27:59;;;;;;;15.90;13.20;;;;;;;;;;6155396;23;20087;-81
2023/05/06 12:30:33;;;;;;;17.00;13.63;;;;;;;;;;6182108;23;20099;-83
2023/05/06 12:32:59;;;;;;;17.33;13.70;;;;;;;;;;6180638;23;20289;-83
2023/05/06 12:35:26;;;;;;;19.70;14.15;;;;;;;;;;6154078;23;20021;-83
2023/05/06 12:37:52;;;;;;;16.40;13.00;;;;;;;;;;6153821;23;20345;-83
2023/05/06 12:40:18;;;;;;;15.57;13.40;;;;;;;;;;6129305;23;20017;-82
2023/05/06 12:42:44;;;;;;;17.23;13.73;;;;;;;;;;6153267;23;20072;-83
2023/05/06 12:45:16;;;;;;;15.50;13.18;;;;;;;;;;6180702;23;20340;-83
2023/05/06 12:47:51;;;;;;;16.10;13.20;;;;;;;;;;6130317;23;20009;-81
2023/05/06 12:50:30;;;;;;;13.93;11.20;;;;;;;;;;6154860;23;20336;-81
2023/05/06 12:52:56;;;;;;;12.93;9.90;;;;;;;;;;6130072;23;20340;-81
2023/05/06 12:55:24;;;;;;;13.90;10.07;;;;;;;;;;6154796;23;20017;-83
2023/05/06 12:57:53;;;;;;;11.13;9.40;;;;;;;;;;6180998;23;20013;-83
2023/05/06 13:00:20;;;;;;;14.70;9.48;;;;;;;;;;6130220;23;20036;-81
2023/05/06 13:02:46;;;;;;;10.35;8.60;;;;;;;;;;6154428;23;20013;-79
2023/05/06 13:05:16;;;;;;;12.95;10.38;;;;;;;;;;6181824;23;20024;-80
2023/05/06 13:07:42;;;;;;;14.27;11.25;;;;;;;;;;6130455;23;20468;-80
2023/05/06 13:10:08;;;;;;;14.20;9.80;;;;;;;;;;6130323;23;20040;-80
2023/05/06 13:12:34;;;;;;;13.65;11.10;;;;;;;;;;6129589;23;20052;-80
2023/05/06 13:15:01;;;;;;;14.15;10.82;;;;;;;;;;6180293;23;20016;-81
2023/05/06 13:17:27;;;;;;;17.20;11.55;;;;;;;;;;6153975;23;20021;-83
2023/05/06 13:19:53;;;;;;;21.58;11.75;;;;;;;;;;6154440;23;20013;-82
2023/05/06 13:22:19;;;;;;;37.05;17.52;;;;;;;;;;6130518;23;20457;-89
2023/05/06 13:24:45;;;;;;;36.97;17.10;;;;;;;;;;6183268;23;20080;-87
2023/05/06 13:27:11;;;;;;;42.30;23.33;;;;;;;;;;6156016;23;20009;-86
2023/05/06 13:29:38;;;;;;;22.42;18.67;;;;;;;;;;6156203;23;20103;-86
2023/05/06 13:32:04;;;;;;;25.65;20.27;;;;;;;;;;6155766;23;20050;-86
2023/05/06 13:34:30;;;;;;;27.83;21.58;;;;;;;;;;6154906;23;20083;-85
2023/05/06 13:36:58;;;;;;;30.88;20.45;;;;;;;;;;6130244;23;20340;-86
2023/05/06 13:39:24;;;;;;;30.65;19.98;;;;;;;;;;6130681;23;20052;-88
2023/05/06 13:41:50;;;;;;;24.50;18.50;;;;;;;;;;6130892;23;20072;-87
2023/05/06 13:44:20;;;;;;;22.65;16.33;;;;;;;;;;6130809;23;20020;-87
2023/05/06 13:46:46;;;;;;;23.95;18.85;;;;;;;;;;6131704;23;20395;-88
2023/05/06 13:49:15;;;;;;;22.70;18.65;;;;;;;;;;6182760;23;20294;-87
2023/05/06 13:51:41;;;;;;;26.25;19.40;;;;;;;;;;6131449;23;20015;-88
2023/05/06 13:54:07;;;;;;;26.88;19.42;;;;;;;;;;6155254;23;20024;-87
2023/05/06 13:56:34;;;;;;;84.05;34.53;;;;;;;;;;6155501;23;20060;-87
2023/05/06 13:59:00;;;;;;;18.25;13.63;;;;;;;;;;6155772;23;20009;-87
2023/05/06 14:01:26;;;;;;;13.13;11.52;;;;;;;;;;6154737;23;20297;-82
2023/05/06 14:03:52;;;;;;;12.30;10.90;;;;;;;;;;6153874;23;20340;-83
2023/05/06 14:06:18;;;;;;;28.90;19.20;;;;;;;;;;6154498;23;20019;-84
2023/05/06 14:08:44;;;;;;;24.38;17.55;;;;;;;;;;6155702;23;20455;-83
2023/05/06 14:11:10;;;;;;;18.65;15.07;;;;;;;;;;6130523;23;20020;-86
2023/05/06 14:13:37;;;;;;;25.65;17.73;;;;;;;;;;6131475;23;20013;-86
2023/05/06 14:16:03;;;;;;;22.67;16.88;;;;;;;;;;6183650;23;20017;-87
2023/05/06 14:18:30;;;;;;;27.10;19.40;;;;;;;;;;6132397;23;20016;-86
2023/05/06 14:20:56;;;;;;;22.80;17.75;;;;;;;;;;6157161;23;20075;-86